AKU705 NZWN-NFFN
Flight info
| Callsign | AKU705 |
|---|---|
| Flight time | N/A |
| Altitude | 39000 |
| Route | RUSIL Y127 OPABI Q277 AA A578 KALAG/N0476F400 A578 AGTAG |
| Aircraft | B77L/H-SDE1E2E3FGHIJ2J3J4J5M1RWXY/LB1D1 |
Departure
| Time | 2026-05-06 01:01 |
|---|---|
| Airport | Wellington International Airport (NZWN) |
Arrival
| Time | N/A |
|---|---|
| Airport | Nadi International Airport (NFFN) |
| Time | Latitude | Longitude | Altitude | Speed | Heading |
|---|---|---|---|---|---|
| 2026-05-06 00:42 | -41.32758 | 174.80966 | 30 ft | 0 kts | 140° |
| 2026-05-06 00:54 | -41.32754 | 174.80962 | 31 ft | 2 kts | 140° |
| 2026-05-06 00:54 | -41.32741 | 174.80948 | 30 ft | 2 kts | 140° |
| 2026-05-06 00:55 | -41.32729 | 174.80934 | 30 ft | 2 kts | 115° |
| 2026-05-06 00:55 | -41.32726 | 174.80913 | 30 ft | 2 kts | 67° |
| 2026-05-06 00:55 | -41.32735 | 174.80895 | 28 ft | 2 kts | 26° |
| 2026-05-06 00:55 | -41.32751 | 174.80890 | 30 ft | 2 kts | 4° |
| 2026-05-06 00:56 | -41.32765 | 174.80888 | 30 ft | 2 kts | 4° |
| 2026-05-06 00:56 | -41.32781 | 174.80886 | 30 ft | 2 kts | 4° |
| 2026-05-06 00:56 | -41.32786 | 174.80886 | 29 ft | 0 kts | 4° |
| 2026-05-06 00:58 | -41.32781 | 174.80886 | 30 ft | 6 kts | 4° |
| 2026-05-06 00:58 | -41.32729 | 174.80849 | 31 ft | 4 kts | 266° |
| 2026-05-06 00:58 | -41.32768 | 174.80816 | 31 ft | 9 kts | 190° |
| 2026-05-06 00:58 | -41.32839 | 174.80807 | 31 ft | 13 kts | 183° |
| 2026-05-06 00:59 | -41.32969 | 174.80798 | 31 ft | 20 kts | 183° |
| 2026-05-06 00:59 | -41.33113 | 174.80788 | 31 ft | 21 kts | 182° |
| 2026-05-06 00:59 | -41.33252 | 174.80781 | 31 ft | 19 kts | 182° |
| 2026-05-06 00:59 | -41.33382 | 174.80773 | 31 ft | 19 kts | 182° |
| 2026-05-06 01:00 | -41.33508 | 174.80762 | 31 ft | 16 kts | 193° |
| 2026-05-06 01:00 | -41.33571 | 174.80677 | 31 ft | 11 kts | 254° |
| 2026-05-06 01:00 | -41.33535 | 174.80635 | 31 ft | 8 kts | 349° |
| 2026-05-06 01:00 | -41.33399 | 174.80642 | 31 ft | 55 kts | 3° |
| 2026-05-06 01:01 | -41.32616 | 174.80694 | 163 ft | 157 kts | 2° |
| 2026-05-06 01:01 | -41.31566 | 174.80764 | 1828 ft | 146 kts | 355° |
| 2026-05-06 01:01 | -41.30656 | 174.80827 | 2912 ft | 158 kts | 353° |
| 2026-05-06 01:01 | -41.29471 | 174.80856 | 3256 ft | 193 kts | 354° |
| 2026-05-06 01:02 | -41.28024 | 174.80944 | 3835 ft | 217 kts | 356° |
| 2026-05-06 01:02 | -41.26467 | 174.81040 | 4631 ft | 229 kts | 352° |
| 2026-05-06 01:02 | -41.24895 | 174.80615 | 5438 ft | 233 kts | 332° |
| 2026-05-06 01:02 | -41.23379 | 174.79722 | 6309 ft | 243 kts | 333° |
| 2026-05-06 01:03 | -41.21748 | 174.78968 | 7267 ft | 255 kts | 340° |
| 2026-05-06 01:03 | -41.20006 | 174.78374 | 8305 ft | 260 kts | 341° |
| 2026-05-06 01:03 | -41.18251 | 174.77771 | 9447 ft | 264 kts | 342° |
| 2026-05-06 01:03 | -41.16440 | 174.77145 | 10433 ft | 269 kts | 343° |
| 2026-05-06 01:04 | -41.14531 | 174.76941 | 11165 ft | 291 kts | 5° |
| 2026-05-06 01:04 | -41.12486 | 174.77666 | 11424 ft | 316 kts | 9° |
| 2026-05-06 01:04 | -41.10205 | 174.78062 | 11688 ft | 343 kts | 0° |
| 2026-05-06 01:04 | -41.07808 | 174.78196 | 12470 ft | 354 kts | 359° |
| 2026-05-06 01:05 | -41.05332 | 174.78297 | 13604 ft | 357 kts | 359° |
| 2026-05-06 01:05 | -41.02853 | 174.78420 | 14772 ft | 358 kts | 360° |
| 2026-05-06 01:05 | -41.00336 | 174.78577 | 15678 ft | 366 kts | 0° |
| 2026-05-06 01:05 | -40.97768 | 174.78763 | 16614 ft | 371 kts | 1° |
| 2026-05-06 01:06 | -40.95182 | 174.78967 | 17637 ft | 374 kts | 1° |
| 2026-05-06 01:06 | -40.92774 | 174.79165 | 18543 ft | 379 kts | 1° |
| 2026-05-06 01:06 | -40.90124 | 174.79387 | 19299 ft | 386 kts | 1° |
| 2026-05-06 01:06 | -40.87409 | 174.79617 | 19962 ft | 395 kts | 1° |
| 2026-05-06 01:07 | -40.84642 | 174.79851 | 20651 ft | 403 kts | 1° |
| 2026-05-06 01:07 | -40.81822 | 174.80090 | 21353 ft | 410 kts | 1° |
| 2026-05-06 01:07 | -40.78946 | 174.80332 | 22009 ft | 418 kts | 1° |
| 2026-05-06 01:07 | -40.76782 | 174.80515 | 22484 ft | 425 kts | 1° |
| 2026-05-06 01:08 | -40.73798 | 174.80767 | 23158 ft | 433 kts | 2° |
| 2026-05-06 01:08 | -40.70771 | 174.81023 | 23838 ft | 440 kts | 2° |
| 2026-05-06 01:08 | -40.67692 | 174.81282 | 24417 ft | 447 kts | 2° |
| 2026-05-06 01:08 | -40.64570 | 174.81496 | 25017 ft | 451 kts | 360° |
| 2026-05-06 01:09 | -40.61417 | 174.81547 | 25625 ft | 456 kts | 358° |
| 2026-05-06 01:09 | -40.58224 | 174.81513 | 26219 ft | 461 kts | 357° |
| 2026-05-06 01:09 | -40.54996 | 174.81451 | 26809 ft | 467 kts | 357° |
| 2026-05-06 01:09 | -40.51725 | 174.81391 | 27365 ft | 473 kts | 357° |
| 2026-05-06 01:10 | -40.48421 | 174.81344 | 27929 ft | 478 kts | 357° |
| 2026-05-06 01:10 | -40.45073 | 174.81311 | 28494 ft | 483 kts | 357° |
| 2026-05-06 01:10 | -40.41691 | 174.81288 | 29045 ft | 488 kts | 357° |
| 2026-05-06 01:10 | -40.38278 | 174.81272 | 29584 ft | 494 kts | 357° |
| 2026-05-06 01:11 | -40.34820 | 174.81259 | 30116 ft | 499 kts | 357° |
| 2026-05-06 01:11 | -40.31332 | 174.81247 | 30595 ft | 503 kts | 357° |
| 2026-05-06 01:11 | -40.27812 | 174.81235 | 31036 ft | 507 kts | 357° |
| 2026-05-06 01:11 | -40.24280 | 174.81223 | 31521 ft | 509 kts | 357° |
| 2026-05-06 01:12 | -40.20778 | 174.81210 | 31985 ft | 510 kts | 357° |
| 2026-05-06 01:12 | -40.17186 | 174.81196 | 32551 ft | 509 kts | 357° |
| 2026-05-06 01:12 | -40.13652 | 174.81184 | 33181 ft | 506 kts | 357° |
| 2026-05-06 01:12 | -40.10184 | 174.81171 | 33810 ft | 504 kts | 357° |
| 2026-05-06 01:13 | -40.07649 | 174.81161 | 34242 ft | 502 kts | 357° |
| 2026-05-06 01:13 | -40.04339 | 174.81148 | 34718 ft | 501 kts | 357° |
| 2026-05-06 01:13 | -40.00865 | 174.81133 | 35232 ft | 498 kts | 357° |
| 2026-05-06 01:13 | -39.97407 | 174.81119 | 35778 ft | 495 kts | 357° |
| 2026-05-06 01:14 | -39.90562 | 174.81092 | 36812 ft | 489 kts | 357° |
| 2026-05-06 01:14 | -39.87170 | 174.81077 | 37275 ft | 487 kts | 357° |
| 2026-05-06 01:14 | -39.83787 | 174.81063 | 37734 ft | 485 kts | 357° |
| 2026-05-06 01:15 | -39.80418 | 174.81049 | 38201 ft | 483 kts | 357° |
| 2026-05-06 01:15 | -39.77067 | 174.81035 | 38687 ft | 480 kts | 357° |
| 2026-05-06 01:15 | -39.73734 | 174.81022 | 39098 ft | 478 kts | 357° |
| 2026-05-06 01:15 | -39.70400 | 174.81008 | 39296 ft | 481 kts | 357° |
| 2026-05-06 01:16 | -39.63651 | 174.80977 | 39362 ft | 485 kts | 357° |
| 2026-05-06 01:16 | -39.56975 | 174.80952 | 39366 ft | 480 kts | 357° |
| 2026-05-06 01:17 | -39.50322 | 174.80926 | 39381 ft | 476 kts | 357° |
| 2026-05-06 01:17 | -39.43701 | 174.80899 | 39384 ft | 475 kts | 357° |
| 2026-05-06 01:18 | -39.38156 | 174.80875 | 39385 ft | 476 kts | 357° |
| 2026-05-06 01:18 | -39.31154 | 174.80846 | 39385 ft | 477 kts | 357° |
| 2026-05-06 01:19 | -39.24507 | 174.80819 | 39391 ft | 478 kts | 357° |
| 2026-05-06 01:19 | -39.17853 | 174.80794 | 39393 ft | 479 kts | 357° |
| 2026-05-06 01:20 | -39.11169 | 174.80776 | 39393 ft | 480 kts | 357° |
| 2026-05-06 01:20 | -39.04526 | 174.80760 | 39391 ft | 481 kts | 357° |
| 2026-05-06 01:21 | -38.97813 | 174.80742 | 39392 ft | 482 kts | 357° |
| 2026-05-06 01:21 | -38.91102 | 174.80723 | 39388 ft | 482 kts | 357° |
| 2026-05-06 01:22 | -38.84383 | 174.80705 | 39393 ft | 483 kts | 357° |
| 2026-05-06 01:22 | -38.77663 | 174.80692 | 39395 ft | 483 kts | 357° |
| 2026-05-06 01:23 | -38.70941 | 174.80687 | 39398 ft | 483 kts | 357° |
| 2026-05-06 01:23 | -38.65352 | 174.80683 | 39395 ft | 483 kts | 357° |
| 2026-05-06 01:24 | -38.61994 | 174.80680 | 39395 ft | 483 kts | 357° |
| 2026-05-06 01:24 | -38.54722 | 174.80673 | 39393 ft | 483 kts | 357° |
| 2026-05-06 01:25 | -38.48006 | 174.80665 | 39395 ft | 483 kts | 357° |
| 2026-05-06 01:25 | -38.41288 | 174.80658 | 39390 ft | 483 kts | 357° |
| 2026-05-06 01:26 | -38.34613 | 174.80651 | 39392 ft | 483 kts | 357° |
| 2026-05-06 01:26 | -38.27896 | 174.80644 | 39395 ft | 483 kts | 357° |
| 2026-05-06 01:27 | -38.21176 | 174.80637 | 39388 ft | 483 kts | 357° |
| 2026-05-06 01:27 | -38.14442 | 174.80630 | 39388 ft | 483 kts | 357° |
| 2026-05-06 01:28 | -38.07756 | 174.80623 | 39389 ft | 483 kts | 357° |
| 2026-05-06 01:28 | -38.01024 | 174.80615 | 39390 ft | 484 kts | 357° |
| 2026-05-06 01:29 | -37.97658 | 174.80612 | 39389 ft | 484 kts | 357° |
| 2026-05-06 01:29 | -37.93721 | 174.80607 | 39390 ft | 484 kts | 357° |
| 2026-05-06 01:30 | -37.86979 | 174.80601 | 39388 ft | 485 kts | 357° |
| 2026-05-06 01:30 | -37.80223 | 174.80674 | 39382 ft | 485 kts | 358° |
| 2026-05-06 01:31 | -37.73852 | 174.80785 | 39384 ft | 485 kts | 358° |
| 2026-05-06 01:31 | -37.67099 | 174.80887 | 39389 ft | 485 kts | 358° |
| 2026-05-06 01:32 | -37.60340 | 174.80980 | 39382 ft | 486 kts | 358° |
| 2026-05-06 01:32 | -37.54710 | 174.81048 | 39378 ft | 486 kts | 358° |
| 2026-05-06 01:33 | -37.47948 | 174.81105 | 39379 ft | 486 kts | 358° |
| 2026-05-06 01:33 | -37.41177 | 174.81160 | 39377 ft | 486 kts | 358° |
| 2026-05-06 01:34 | -37.35076 | 174.81213 | 39379 ft | 486 kts | 358° |
| 2026-05-06 01:34 | -37.30774 | 174.81251 | 39375 ft | 486 kts | 358° |
| 2026-05-06 01:35 | -37.24427 | 174.81307 | 39377 ft | 486 kts | 358° |
| 2026-05-06 01:35 | -37.18006 | 174.81364 | 39374 ft | 486 kts | 358° |
| 2026-05-06 01:36 | -37.11372 | 174.81412 | 39374 ft | 486 kts | 357° |
| 2026-05-06 01:36 | -37.04602 | 174.81403 | 39372 ft | 486 kts | 357° |
| 2026-05-06 01:37 | -36.97838 | 174.81717 | 39381 ft | 488 kts | 4° |
| 2026-05-06 01:37 | -36.91088 | 174.82812 | 39381 ft | 489 kts | 5° |
| 2026-05-06 01:38 | -36.84337 | 174.83960 | 39378 ft | 489 kts | 5° |
| 2026-05-06 01:38 | -36.77576 | 174.85072 | 39381 ft | 490 kts | 5° |
| 2026-05-06 01:39 | -36.71373 | 174.86067 | 39384 ft | 490 kts | 5° |
| 2026-05-06 01:39 | -36.64609 | 174.87141 | 39385 ft | 490 kts | 5° |
| 2026-05-06 01:40 | -36.58106 | 174.88172 | 39386 ft | 490 kts | 5° |
| 2026-05-06 01:40 | -36.56052 | 174.88498 | 39381 ft | 490 kts | 5° |
| 2026-05-06 01:41 | -36.49282 | 174.89571 | 39383 ft | 491 kts | 5° |
| 2026-05-06 01:41 | -36.42498 | 174.90646 | 39378 ft | 491 kts | 5° |
| 2026-05-06 01:42 | -36.35494 | 174.91753 | 39377 ft | 491 kts | 5° |
| 2026-05-06 01:42 | -36.28709 | 174.92823 | 39380 ft | 492 kts | 5° |
| 2026-05-06 01:43 | -36.21923 | 174.93892 | 39378 ft | 492 kts | 5° |
| 2026-05-06 01:43 | -36.15114 | 174.94962 | 39375 ft | 492 kts | 5° |
| 2026-05-06 01:44 | -36.08367 | 174.96021 | 39378 ft | 492 kts | 5° |
| 2026-05-06 01:44 | -36.01572 | 174.97086 | 39377 ft | 492 kts | 5° |
| 2026-05-06 01:45 | -35.97279 | 174.97758 | 39375 ft | 492 kts | 5° |
| 2026-05-06 01:45 | -35.90476 | 174.98820 | 39376 ft | 492 kts | 5° |
| 2026-05-06 01:46 | -35.83674 | 174.99881 | 39374 ft | 493 kts | 5° |
| 2026-05-06 01:46 | -35.76870 | 175.00940 | 39376 ft | 493 kts | 5° |
| 2026-05-06 01:47 | -35.70061 | 175.01999 | 39375 ft | 493 kts | 5° |
| 2026-05-06 01:47 | -35.63252 | 175.03055 | 39373 ft | 493 kts | 5° |
| 2026-05-06 01:48 | -35.56442 | 175.04110 | 39374 ft | 493 kts | 5° |
| 2026-05-06 01:48 | -35.49625 | 175.05164 | 39373 ft | 493 kts | 5° |
| 2026-05-06 01:49 | -35.42850 | 175.06210 | 39371 ft | 494 kts | 5° |
| 2026-05-06 01:49 | -35.36021 | 175.07262 | 39367 ft | 494 kts | 5° |
| 2026-05-06 01:50 | -35.29204 | 175.08311 | 39370 ft | 494 kts | 5° |
| 2026-05-06 01:50 | -35.22378 | 175.09359 | 39362 ft | 494 kts | 5° |
| 2026-05-06 01:51 | -35.15588 | 175.10400 | 39370 ft | 494 kts | 5° |
| 2026-05-06 01:51 | -35.08759 | 175.11445 | 39370 ft | 495 kts | 5° |
| 2026-05-06 01:52 | -35.01932 | 175.12488 | 39362 ft | 495 kts | 5° |
| 2026-05-06 01:52 | -34.96043 | 175.13387 | 39361 ft | 495 kts | 5° |
| 2026-05-06 01:53 | -34.89205 | 175.14428 | 39365 ft | 495 kts | 5° |
| 2026-05-06 01:53 | -34.82362 | 175.15469 | 39361 ft | 495 kts | 5° |
| 2026-05-06 01:54 | -34.75517 | 175.16508 | 39361 ft | 496 kts | 5° |
| 2026-05-06 01:54 | -34.68674 | 175.17545 | 39363 ft | 496 kts | 5° |
| 2026-05-06 01:55 | -34.65233 | 175.18066 | 39486 ft | 498 kts | 5° |
| 2026-05-06 01:55 | -34.61798 | 175.18585 | 39773 ft | 497 kts | 5° |
| 2026-05-06 01:55 | -34.59529 | 175.18928 | 39992 ft | 496 kts | 5° |
| 2026-05-06 01:55 | -34.54944 | 175.19621 | 40293 ft | 496 kts | 5° |
| 2026-05-06 01:56 | -34.48122 | 175.20650 | 40345 ft | 496 kts | 5° |
| 2026-05-06 01:56 | -34.41312 | 175.21676 | 40337 ft | 490 kts | 5° |
| 2026-05-06 01:57 | -34.34568 | 175.22690 | 40342 ft | 487 kts | 5° |
| 2026-05-06 01:57 | -34.27843 | 175.23699 | 40346 ft | 486 kts | 5° |
| 2026-05-06 01:58 | -34.21127 | 175.24704 | 40348 ft | 487 kts | 5° |
| 2026-05-06 01:58 | -34.14401 | 175.25710 | 40352 ft | 488 kts | 5° |
| 2026-05-06 01:59 | -34.07646 | 175.26718 | 40347 ft | 490 kts | 5° |
| 2026-05-06 01:59 | -34.00873 | 175.27728 | 40345 ft | 491 kts | 5° |
| 2026-05-06 02:00 | -33.94074 | 175.28740 | 40344 ft | 493 kts | 5° |
| 2026-05-06 02:00 | -33.87255 | 175.29754 | 40342 ft | 494 kts | 5° |
| 2026-05-06 02:01 | -33.80416 | 175.30769 | 40338 ft | 496 kts | 5° |
| 2026-05-06 02:01 | -33.73600 | 175.31779 | 40340 ft | 497 kts | 5° |
| 2026-05-06 02:02 | -33.66730 | 175.32797 | 40342 ft | 498 kts | 5° |
| 2026-05-06 02:02 | -33.59849 | 175.33831 | 40329 ft | 498 kts | 5° |
| 2026-05-06 02:03 | -33.52960 | 175.34868 | 40334 ft | 499 kts | 5° |
| 2026-05-06 02:03 | -33.46067 | 175.35903 | 40330 ft | 499 kts | 5° |
| 2026-05-06 02:04 | -33.39176 | 175.36934 | 40329 ft | 499 kts | 5° |
| 2026-05-06 02:04 | -33.32286 | 175.37963 | 40328 ft | 499 kts | 5° |
| 2026-05-06 02:05 | -33.25386 | 175.38992 | 40329 ft | 499 kts | 5° |
| 2026-05-06 02:05 | -33.18492 | 175.40018 | 40323 ft | 499 kts | 5° |
| 2026-05-06 02:06 | -33.11599 | 175.41043 | 40324 ft | 499 kts | 5° |
| 2026-05-06 02:06 | -33.04707 | 175.42066 | 40318 ft | 499 kts | 5° |
| 2026-05-06 02:07 | -32.97812 | 175.43087 | 40320 ft | 499 kts | 5° |
| 2026-05-06 02:07 | -32.90961 | 175.44101 | 40318 ft | 499 kts | 5° |
| 2026-05-06 02:08 | -32.85177 | 175.44955 | 40315 ft | 500 kts | 5° |
| 2026-05-06 02:08 | -32.77152 | 175.46139 | 40313 ft | 500 kts | 5° |
| 2026-05-06 02:09 | -32.70251 | 175.47155 | 40309 ft | 500 kts | 5° |
| 2026-05-06 02:09 | -32.63338 | 175.48172 | 40306 ft | 500 kts | 5° |
| 2026-05-06 02:10 | -32.57545 | 175.49022 | 40308 ft | 501 kts | 5° |
| 2026-05-06 02:10 | -32.50665 | 175.50031 | 40302 ft | 501 kts | 5° |
| 2026-05-06 02:11 | -32.43738 | 175.51045 | 40305 ft | 502 kts | 5° |
| 2026-05-06 02:11 | -32.36813 | 175.52057 | 40304 ft | 502 kts | 4° |
| 2026-05-06 02:12 | -32.29879 | 175.53069 | 40304 ft | 502 kts | 4° |
| 2026-05-06 02:12 | -32.23209 | 175.54041 | 40300 ft | 503 kts | 4° |
| 2026-05-06 02:13 | -32.16263 | 175.55051 | 40295 ft | 503 kts | 4° |
| 2026-05-06 02:13 | -32.09315 | 175.56060 | 40297 ft | 503 kts | 4° |
| 2026-05-06 02:14 | -32.02408 | 175.57062 | 40292 ft | 504 kts | 4° |
| 2026-05-06 02:14 | -31.95444 | 175.58071 | 40292 ft | 504 kts | 4° |
| 2026-05-06 02:15 | -31.88479 | 175.59078 | 40290 ft | 504 kts | 4° |
| 2026-05-06 02:15 | -31.81507 | 175.60084 | 40289 ft | 504 kts | 4° |
| 2026-05-06 02:16 | -31.74539 | 175.61089 | 40287 ft | 505 kts | 4° |
| 2026-05-06 02:16 | -31.67563 | 175.62093 | 40283 ft | 505 kts | 4° |
| 2026-05-06 02:17 | -31.60582 | 175.63097 | 40284 ft | 505 kts | 4° |
| 2026-05-06 02:17 | -31.53638 | 175.64093 | 40279 ft | 506 kts | 4° |
| 2026-05-06 02:18 | -31.46609 | 175.65100 | 40276 ft | 506 kts | 4° |
| 2026-05-06 02:18 | -31.39794 | 175.66075 | 40277 ft | 506 kts | 4° |
| 2026-05-06 02:19 | -31.32842 | 175.67068 | 40276 ft | 507 kts | 4° |
| 2026-05-06 02:19 | -31.26133 | 175.68025 | 40270 ft | 507 kts | 4° |
| 2026-05-06 02:20 | -31.15613 | 175.69524 | 40273 ft | 508 kts | 4° |
| 2026-05-06 02:21 | -31.08593 | 175.70521 | 40271 ft | 508 kts | 4° |
| 2026-05-06 02:21 | -31.01560 | 175.71519 | 40271 ft | 509 kts | 4° |
| 2026-05-06 02:22 | -30.94569 | 175.72510 | 40267 ft | 509 kts | 4° |
| 2026-05-06 02:22 | -30.87523 | 175.73507 | 40263 ft | 510 kts | 4° |
| 2026-05-06 02:23 | -30.80473 | 175.74500 | 40262 ft | 510 kts | 4° |
| 2026-05-06 02:23 | -30.73807 | 175.75437 | 40255 ft | 511 kts | 4° |
| 2026-05-06 02:24 | -30.66792 | 175.76423 | 40258 ft | 511 kts | 4° |
| 2026-05-06 02:24 | -30.60261 | 175.77339 | 40253 ft | 512 kts | 4° |
| 2026-05-06 02:25 | -30.53181 | 175.78331 | 40256 ft | 512 kts | 4° |
| 2026-05-06 02:25 | -30.46096 | 175.79322 | 40253 ft | 513 kts | 4° |
| 2026-05-06 02:26 | -30.38999 | 175.80314 | 40254 ft | 513 kts | 4° |
| 2026-05-06 02:26 | -30.31952 | 175.81297 | 40250 ft | 514 kts | 4° |
| 2026-05-06 02:27 | -30.24839 | 175.82288 | 40246 ft | 514 kts | 4° |
| 2026-05-06 02:27 | -30.17734 | 175.83276 | 40245 ft | 515 kts | 4° |
| 2026-05-06 02:28 | -30.10728 | 175.84249 | 40244 ft | 515 kts | 3° |
| 2026-05-06 02:28 | -30.03650 | 175.85231 | 40240 ft | 516 kts | 3° |
| 2026-05-06 02:29 | -29.96504 | 175.86221 | 40238 ft | 516 kts | 3° |
| 2026-05-06 02:29 | -29.89360 | 175.87209 | 40236 ft | 517 kts | 3° |
| 2026-05-06 02:30 | -29.82216 | 175.88195 | 40233 ft | 517 kts | 3° |
| 2026-05-06 02:30 | -29.75064 | 175.89182 | 40229 ft | 518 kts | 3° |
| 2026-05-06 02:31 | -29.67898 | 175.90168 | 40231 ft | 518 kts | 3° |
| 2026-05-06 02:31 | -29.60729 | 175.91154 | 40231 ft | 519 kts | 3° |
| 2026-05-06 02:32 | -29.53553 | 175.92139 | 40224 ft | 519 kts | 3° |
| 2026-05-06 02:32 | -29.46426 | 175.93116 | 40225 ft | 520 kts | 3° |
| 2026-05-06 02:33 | -29.39233 | 175.94101 | 40223 ft | 520 kts | 3° |
| 2026-05-06 02:33 | -29.36799 | 175.94434 | 40222 ft | 520 kts | 3° |
| 2026-05-06 02:34 | -29.25979 | 175.95912 | 40220 ft | 521 kts | 3° |
| 2026-05-06 02:34 | -29.18778 | 175.96894 | 40219 ft | 521 kts | 3° |
| 2026-05-06 02:35 | -29.11577 | 175.97875 | 40219 ft | 521 kts | 3° |
| 2026-05-06 02:35 | -29.04375 | 175.98854 | 40214 ft | 521 kts | 3° |
| 2026-05-06 02:36 | -28.97169 | 175.99833 | 40214 ft | 521 kts | 3° |
| 2026-05-06 02:36 | -28.89967 | 176.00809 | 40211 ft | 521 kts | 3° |
| 2026-05-06 02:37 | -28.82801 | 176.01780 | 40209 ft | 521 kts | 3° |
| 2026-05-06 02:37 | -28.75554 | 176.02759 | 40203 ft | 521 kts | 3° |
| 2026-05-06 02:38 | -28.68389 | 176.03727 | 40203 ft | 521 kts | 3° |
| 2026-05-06 02:38 | -28.61175 | 176.04700 | 40202 ft | 521 kts | 3° |
| 2026-05-06 02:39 | -28.53967 | 176.05670 | 40205 ft | 521 kts | 3° |
| 2026-05-06 02:39 | -28.46753 | 176.06640 | 40193 ft | 521 kts | 3° |
| 2026-05-06 02:40 | -28.39546 | 176.07608 | 40196 ft | 521 kts | 3° |
| 2026-05-06 02:40 | -28.32347 | 176.08574 | 40189 ft | 521 kts | 3° |
| 2026-05-06 02:41 | -28.25142 | 176.09539 | 40185 ft | 521 kts | 3° |
| 2026-05-06 02:41 | -28.17987 | 176.10495 | 40187 ft | 521 kts | 2° |
| 2026-05-06 02:42 | -28.10988 | 176.11430 | 40185 ft | 521 kts | 2° |
| 2026-05-06 02:42 | -28.03785 | 176.12391 | 40183 ft | 521 kts | 2° |
| 2026-05-06 02:43 | -27.96582 | 176.13350 | 40181 ft | 521 kts | 2° |
| 2026-05-06 02:43 | -27.89461 | 176.14298 | 40180 ft | 521 kts | 2° |
| 2026-05-06 02:44 | -27.82252 | 176.15255 | 40171 ft | 521 kts | 2° |
| 2026-05-06 02:44 | -27.75050 | 176.16212 | 40175 ft | 522 kts | 2° |
| 2026-05-06 02:45 | -27.67836 | 176.17170 | 40170 ft | 522 kts | 2° |
| 2026-05-06 02:45 | -27.60660 | 176.18123 | 40167 ft | 522 kts | 2° |
| 2026-05-06 02:46 | -27.53445 | 176.19079 | 40165 ft | 522 kts | 2° |
| 2026-05-06 02:46 | -27.46217 | 176.20036 | 40163 ft | 523 kts | 2° |
| 2026-05-06 02:47 | -27.38984 | 176.20992 | 40160 ft | 523 kts | 2° |
| 2026-05-06 02:47 | -27.31751 | 176.21946 | 40156 ft | 523 kts | 2° |
| 2026-05-06 02:48 | -27.24518 | 176.22899 | 40157 ft | 523 kts | 2° |
| 2026-05-06 02:48 | -27.17285 | 176.23852 | 40152 ft | 523 kts | 2° |
| 2026-05-06 02:49 | -27.10139 | 176.24791 | 40147 ft | 523 kts | 2° |
| 2026-05-06 02:49 | -27.02915 | 176.25740 | 40144 ft | 523 kts | 1° |
| 2026-05-06 02:50 | -26.95668 | 176.26690 | 40144 ft | 523 kts | 1° |
| 2026-05-06 02:50 | -26.88428 | 176.27638 | 40143 ft | 524 kts | 1° |
| 2026-05-06 02:51 | -26.81185 | 176.28585 | 40140 ft | 524 kts | 1° |
| 2026-05-06 02:51 | -26.73939 | 176.29532 | 40139 ft | 524 kts | 1° |
| 2026-05-06 02:52 | -26.66700 | 176.30476 | 40136 ft | 524 kts | 1° |
| 2026-05-06 02:52 | -26.59497 | 176.31415 | 40128 ft | 524 kts | 1° |
| 2026-05-06 02:53 | -26.52245 | 176.32359 | 40132 ft | 524 kts | 1° |
| 2026-05-06 02:53 | -26.45001 | 176.33300 | 40133 ft | 524 kts | 1° |
| 2026-05-06 02:54 | -26.37752 | 176.34241 | 40126 ft | 524 kts | 1° |
| 2026-05-06 02:54 | -26.30486 | 176.35183 | 40126 ft | 525 kts | 1° |
| 2026-05-06 02:55 | -26.23280 | 176.36116 | 40119 ft | 525 kts | 1° |
| 2026-05-06 02:55 | -26.15999 | 176.37057 | 40115 ft | 525 kts | 1° |
| 2026-05-06 02:56 | -26.08742 | 176.37994 | 40120 ft | 525 kts | 1° |
| 2026-05-06 02:56 | -26.02703 | 176.38773 | 40118 ft | 525 kts | 1° |
| 2026-05-06 02:57 | -25.95448 | 176.39708 | 40118 ft | 525 kts | 1° |
| 2026-05-06 02:57 | -25.87001 | 176.40795 | 40111 ft | 525 kts | 1° |
| 2026-05-06 02:58 | -25.79734 | 176.41729 | 40112 ft | 525 kts | 1° |
| 2026-05-06 02:58 | -25.73696 | 176.42504 | 40107 ft | 525 kts | 1° |
| 2026-05-06 02:59 | -25.67013 | 176.43361 | 40103 ft | 525 kts | 1° |
| 2026-05-06 02:59 | -25.59744 | 176.44291 | 40102 ft | 526 kts | 1° |
| 2026-05-06 03:00 | -25.52475 | 176.45221 | 40099 ft | 526 kts | 1° |
| 2026-05-06 03:00 | -25.45205 | 176.46150 | 40092 ft | 526 kts | 0° |
| 2026-05-06 03:01 | -25.37932 | 176.47078 | 40090 ft | 526 kts | 0° |
| 2026-05-06 03:01 | -25.30646 | 176.48007 | 40084 ft | 526 kts | 0° |
| 2026-05-06 03:02 | -25.23378 | 176.48932 | 40084 ft | 526 kts | 0° |
| 2026-05-06 03:02 | -25.16147 | 176.49851 | 40092 ft | 526 kts | 0° |
| 2026-05-06 03:03 | -25.09559 | 176.50688 | 40081 ft | 526 kts | 0° |
| 2026-05-06 03:03 | -25.02281 | 176.51611 | 40079 ft | 526 kts | 0° |
| 2026-05-06 03:04 | -24.94999 | 176.52533 | 40075 ft | 526 kts | 0° |